Terminal Aerodrome Forecast
Issued by NWS Knoxville/Tri Cities, TN

Home | Current Version | Previous Version | Text Only | Print | Product List | Glossary On
Versions: 1 2 3 4 5 6 7 8 9 10 11 12 13 14 15 16 17 18 19 20 21 22 23 24 25 26
000
FTUS44 KMRX 281136
TAFTYS
TAF
KTYS 281136Z 2812/0112 33004KT P6SM BKN050
     FM281300 23005KT P6SM VCSH OVC025
     FM281800 22010KT P6SM -SHRA OVC015
     FM282200 22008KT 4SM -SHRA BR OVC015
     FM010500 21010KT 6SM BR OVC025=

USA.gov is the U.S. government's official web portal to all federal, state and local government web resources and services.